createdAt,value
2022-08-09T10:14:33.032Z,78.75
2022-08-09T10:16:09.230Z,78.75
2022-08-09T10:17:06.241Z,84.38
2022-08-09T10:17:54.920Z,84.38
2022-08-09T10:18:30.502Z,84.38
2022-08-09T10:19:30.469Z,84.38
2022-08-09T10:20:35.930Z,84.38
2022-08-09T10:21:30.448Z,84.38
2022-08-09T10:22:32.655Z,84.38
2022-08-09T10:23:30.489Z,84.38
2022-08-09T10:24:36.159Z,84.38
2022-08-09T10:25:34.788Z,84.38
2022-08-09T10:26:30.401Z,84.38
2022-08-09T10:27:38.451Z,84.38
2022-08-09T10:28:30.375Z,84.38
2022-08-09T10:30:11.676Z,90.00
2022-08-09T10:32:45.851Z,90.00
2022-08-09T10:34:08.338Z,90.00
2022-08-09T10:34:33.745Z,90.00
2022-08-09T10:35:30.307Z,90.00
2022-08-09T10:36:30.313Z,90.00
2022-08-09T10:37:30.279Z,90.00
2022-08-09T10:38:55.439Z,90.00
2022-08-09T10:39:30.369Z,95.62
2022-08-09T10:40:34.945Z,95.62
2022-08-09T10:41:30.265Z,95.62
2022-08-09T10:42:30.431Z,95.62
2022-08-09T10:43:37.748Z,101.25
2022-08-09T10:44:30.214Z,101.25
2022-08-09T10:45:31.923Z,101.25
2022-08-09T10:46:30.220Z,101.25
2022-08-09T10:48:20.279Z,101.25
2022-08-09T10:48:36.286Z,106.88
2022-08-09T10:49:42.725Z,106.88
2022-08-09T10:50:31.303Z,106.88
2022-08-09T10:51:41.014Z,106.88
2022-08-09T10:52:30.158Z,112.50
2022-08-09T10:53:32.052Z,112.50
2022-08-09T10:54:30.133Z,118.12
2022-08-09T10:55:55.146Z,118.12
2022-08-09T10:56:30.088Z,129.38
2022-08-09T10:57:30.559Z,140.62
2022-08-09T10:58:30.109Z,146.25
2022-08-09T10:59:31.223Z,151.88
2022-08-09T11:00:30.045Z,298.12
2022-08-09T11:03:11.076Z,928.12
2022-08-09T11:03:28.042Z,1299.38
2022-08-09T11:03:59.904Z,1423.12
2022-08-09T11:04:34.201Z,1361.25
2022-08-09T11:05:34.171Z,1293.75
2022-08-09T11:06:34.090Z,1361.25
2022-08-09T11:07:56.703Z,2874.38
2022-08-09T11:08:34.080Z,2874.38
2022-08-09T11:09:36.714Z,2874.38
2022-08-09T11:10:34.055Z,2874.38
2022-08-09T11:11:34.048Z,2874.38
2022-08-09T11:12:34.289Z,2874.38
2022-08-09T11:13:50.383Z,1338.75
2022-08-09T11:14:34.047Z,1276.88
2022-08-09T11:15:38.605Z,2874.38
2022-08-09T11:16:35.679Z,2874.38
2022-08-09T11:17:33.988Z,2874.38
2022-08-09T11:18:33.982Z,1389.38
2022-08-09T11:20:12.107Z,2874.38
2022-08-09T11:20:33.985Z,2874.38
2022-08-09T11:21:33.954Z,2874.38
2022-08-09T11:22:33.975Z,2874.38
2022-08-09T11:23:34.150Z,2874.38
2022-08-09T11:24:33.926Z,2874.38
2022-08-09T11:25:45.235Z,2874.38
2022-08-09T11:26:33.939Z,2874.38
2022-08-09T11:28:08.050Z,2874.38
2022-08-09T11:28:38.495Z,2874.38
2022-08-09T11:30:03.980Z,1327.50
2022-08-09T11:30:35.657Z,658.12
2022-08-09T11:31:36.833Z,2874.38
2022-08-09T11:32:34.172Z,2874.38
2022-08-09T11:33:33.879Z,2874.38
2022-08-09T11:34:33.855Z,2874.38
2022-08-09T11:35:35.189Z,2874.38
2022-08-09T11:36:35.907Z,2874.38
2022-08-09T11:37:40.822Z,2874.38
2022-08-09T11:38:34.767Z,2874.38
2022-08-09T11:39:38.718Z,2874.38
2022-08-09T11:40:34.007Z,2874.38
2022-08-09T11:41:38.234Z,2874.38
2022-08-09T11:42:34.124Z,2874.38
2022-08-09T11:43:33.964Z,2874.38
2022-08-09T11:44:33.824Z,2874.38
2022-08-09T11:45:37.738Z,2874.38
2022-08-09T11:46:33.839Z,1350.00
2022-08-09T11:47:33.744Z,2874.38
2022-08-09T11:48:33.743Z,2874.38
2022-08-09T11:49:42.851Z,2874.38
2022-08-09T11:52:56.457Z,174.38
2022-08-09T11:53:35.514Z,157.50
2022-08-09T11:54:12.921Z,663.75
2022-08-09T11:54:33.712Z,2874.38
2022-08-09T11:55:52.728Z,2874.38
2022-08-09T11:56:41.649Z,2874.38
2022-08-09T11:57:59.764Z,2874.38
2022-08-09T11:58:32.566Z,1372.50
2022-08-09T11:59:30.262Z,1395.00
2022-08-09T12:00:29.935Z,2874.38
2022-08-09T12:02:00.864Z,2874.38
2022-08-09T12:02:37.380Z,2874.38
2022-08-09T12:03:55.099Z,2874.38
2022-08-09T12:04:37.603Z,2874.38
2022-08-09T12:05:32.337Z,2874.38
2022-08-09T12:06:32.522Z,2874.38
2022-08-09T12:07:41.531Z,2874.38
2022-08-09T12:08:29.721Z,2874.38
2022-08-09T12:09:33.740Z,2874.38
2022-08-09T12:10:38.637Z,2874.38
2022-08-09T12:11:32.314Z,2874.38
2022-08-09T12:12:31.943Z,2874.38
2022-08-09T12:14:07.101Z,2874.38
2022-08-09T12:14:36.642Z,2874.38
2022-08-09T12:15:49.084Z,2874.38
2022-08-09T12:16:37.447Z,2874.38
2022-08-09T12:17:43.298Z,2874.38
2022-08-09T12:18:33.413Z,2874.38
2022-08-09T12:19:29.652Z,2874.38
2022-08-09T12:20:29.648Z,2874.38
2022-08-09T12:21:38.590Z,2874.38
2022-08-09T12:22:29.796Z,528.75
2022-08-09T12:23:56.681Z,1406.25
2022-08-09T12:24:29.674Z,2874.38
2022-08-09T12:25:31.963Z,2874.38
2022-08-09T12:26:29.620Z,2874.38
2022-08-09T12:29:10.809Z,1186.88
2022-08-09T12:29:33.706Z,337.50
2022-08-09T12:29:54.587Z,2874.38
2022-08-09T12:30:39.322Z,1428.75
2022-08-09T12:32:01.818Z,2874.38
2022-08-09T12:32:37.124Z,2874.38
2022-08-09T12:33:58.433Z,2874.38
2022-08-09T12:34:37.627Z,2874.38
2022-08-09T12:35:40.363Z,2874.38
2022-08-09T12:36:37.097Z,2874.38
2022-08-09T12:37:43.992Z,2874.38
2022-08-09T12:38:38.212Z,2874.38
2022-08-09T12:39:37.814Z,2874.38
2022-08-09T12:40:37.118Z,2874.38
2022-08-09T12:41:40.185Z,2874.38
2022-08-09T12:42:37.242Z,2874.38
2022-08-09T12:44:05.844Z,2874.38
2022-08-09T12:44:37.246Z,2874.38
2022-08-09T12:45:38.617Z,2874.38
2022-08-09T12:46:37.095Z,2874.38
2022-08-09T12:47:41.293Z,2874.38
2022-08-09T12:48:37.275Z,601.88
2022-08-09T12:49:37.038Z,1400.62
2022-08-09T12:50:37.255Z,2874.38
2022-08-09T12:52:00.687Z,2874.38
2022-08-09T12:52:42.853Z,2874.38
2022-08-09T12:53:38.703Z,292.50
2022-08-09T12:54:37.015Z,596.25
2022-08-09T12:56:13.881Z,2874.38
2022-08-09T12:56:48.389Z,781.88
2022-08-09T12:57:38.688Z,838.12
2022-08-09T12:58:43.076Z,798.75
2022-08-09T12:59:57.375Z,376.88
2022-08-09T13:00:36.984Z,1074.38
2022-08-09T13:01:38.055Z,2874.38
2022-08-09T13:02:36.971Z,2874.38
2022-08-09T13:03:56.942Z,2874.38
2022-08-09T13:04:38.762Z,2874.38
2022-08-09T13:05:51.767Z,2874.38
2022-08-09T13:06:36.956Z,2874.38
2022-08-09T13:07:50.829Z,2874.38
2022-08-09T13:08:39.947Z,393.75
2022-08-09T13:09:38.160Z,365.62
2022-08-09T13:10:36.942Z,343.12
2022-08-09T13:11:39.236Z,2874.38
2022-08-09T13:12:39.977Z,2874.38
2022-08-09T13:14:11.844Z,2874.38
2022-08-09T13:14:53.766Z,1018.12
2022-08-09T13:15:36.897Z,354.38
2022-08-09T13:16:36.907Z,2874.38
2022-08-09T13:18:02.633Z,1344.38
2022-08-09T13:18:36.872Z,1434.38
2022-08-09T13:20:09.907Z,2874.38
2022-08-09T13:20:37.183Z,2874.38
2022-08-09T13:22:37.764Z,2874.38
2022-08-09T13:23:01.306Z,2874.38
2022-08-09T13:24:15.962Z,2874.38
2022-08-09T13:24:52.709Z,2874.38
2022-08-09T13:25:41.604Z,1417.50
2022-08-09T13:26:37.430Z,2874.38
2022-08-09T13:27:40.030Z,2874.38
2022-08-09T13:28:39.601Z,2874.38
2022-08-09T13:30:03.170Z,2874.38
2022-08-09T13:31:11.036Z,2874.38
2022-08-09T13:32:26.466Z,1400.62
2022-08-09T13:32:41.717Z,2874.38
2022-08-09T13:33:53.833Z,2874.38
2022-08-09T13:34:36.854Z,2874.38
2022-08-09T13:36:23.312Z,2874.38
2022-08-09T13:36:44.644Z,2874.38
2022-08-09T13:37:50.534Z,1411.88
2022-08-09T13:38:57.811Z,2874.38
2022-08-09T13:41:50.811Z,2874.38
2022-08-09T13:42:04.711Z,2874.38
2022-08-09T13:42:12.186Z,1411.88
2022-08-09T13:43:11.620Z,1434.38
2022-08-09T13:44:09.844Z,2874.38
2022-08-09T13:45:12.324Z,1411.88
2022-08-09T13:47:14.464Z,2874.38
2022-08-09T13:47:48.934Z,2874.38
2022-08-09T13:48:10.921Z,2874.38
2022-08-09T13:49:18.284Z,1400.62
2022-08-09T13:50:18.252Z,450.00
2022-08-09T13:51:09.806Z,365.62
2022-08-09T13:52:10.148Z,360.00
2022-08-09T13:53:09.783Z,646.88
2022-08-09T13:54:09.779Z,2874.38
2022-08-09T13:55:13.622Z,1428.75
2022-08-09T13:56:12.182Z,320.62
2022-08-09T13:57:09.761Z,320.62
2022-08-09T13:58:11.693Z,247.50
2022-08-09T13:59:09.748Z,230.62
2022-08-09T14:00:09.796Z,393.75
2022-08-09T14:01:13.516Z,883.12
2022-08-09T14:02:09.989Z,191.25
2022-08-09T14:04:01.195Z,180.00
2022-08-09T14:04:11.722Z,168.75
2022-08-09T14:05:09.811Z,168.75
2022-08-09T14:06:12.917Z,191.25
2022-08-09T14:07:09.711Z,1260.00
2022-08-09T14:08:10.399Z,1321.88
2022-08-09T14:09:09.680Z,1175.62
2022-08-09T14:10:17.371Z,1220.62
2022-08-09T14:11:09.891Z,1248.75
2022-08-09T14:12:15.696Z,1181.25
2022-08-09T14:13:12.094Z,1192.50
2022-08-09T14:14:22.680Z,1181.25
2022-08-09T14:16:06.349Z,1175.62
2022-08-09T14:16:15.770Z,1158.75
2022-08-09T14:17:11.927Z,1186.88
2022-08-09T14:18:18.995Z,1203.75
2022-08-09T14:19:09.641Z,1231.88
2022-08-09T14:20:09.607Z,1153.12
2022-08-09T14:21:09.592Z,855.00
2022-08-09T14:22:09.612Z,573.75
2022-08-09T14:23:09.581Z,365.62
2022-08-09T14:24:10.317Z,360.00
2022-08-09T14:25:10.025Z,365.62
2022-08-09T14:26:10.158Z,376.88
2022-08-09T14:27:19.980Z,382.50
2022-08-09T14:28:09.547Z,388.12
2022-08-09T14:30:03.891Z,382.50
2022-08-09T14:30:41.434Z,348.75
2022-08-09T14:31:09.552Z,286.88
2022-08-09T14:32:13.113Z,247.50
2022-08-09T14:33:11.451Z,196.88
2022-08-09T14:34:09.497Z,202.50
2022-08-09T14:35:09.508Z,140.62
2022-08-09T14:36:20.527Z,129.38
2022-08-09T14:37:09.487Z,123.75
2022-08-09T14:38:09.460Z,123.75
2022-08-09T14:39:09.639Z,129.38
2022-08-09T14:40:09.511Z,129.38
2022-08-09T14:41:35.242Z,123.75
2022-08-09T14:42:09.436Z,151.88
2022-08-09T14:43:09.416Z,146.25
2022-08-09T14:44:11.036Z,140.62
2022-08-09T14:46:39.098Z,140.62
2022-08-09T14:47:29.133Z,135.00
2022-08-09T14:47:56.740Z,135.00
2022-08-09T14:48:15.701Z,129.38
2022-08-09T14:49:16.279Z,129.38
2022-08-09T14:50:16.286Z,123.75
2022-08-09T14:51:15.665Z,123.75
2022-08-09T14:52:15.690Z,118.12
2022-08-09T14:53:15.644Z,118.12
2022-08-09T14:54:15.723Z,118.12
2022-08-09T14:55:20.456Z,112.50
2022-08-09T14:56:15.630Z,112.50
2022-08-09T14:57:15.616Z,112.50
2022-08-09T14:58:15.692Z,112.50
2022-08-09T14:59:15.593Z,118.12
2022-08-09T15:00:15.590Z,118.12
2022-08-09T15:01:15.647Z,118.12
2022-08-09T15:02:15.575Z,123.75
2022-08-09T15:03:16.713Z,129.38
2022-08-09T15:04:15.554Z,129.38
2022-08-09T15:05:16.277Z,129.38
2022-08-09T15:06:15.531Z,135.00
2022-08-09T15:07:15.680Z,140.62
2022-08-09T15:08:16.458Z,151.88
2022-08-09T15:09:15.531Z,151.88
2022-08-09T15:10:15.507Z,135.00
2022-08-09T15:11:15.501Z,123.75
2022-08-09T15:12:15.480Z,118.12
2022-08-09T15:13:15.499Z,112.50
2022-08-09T15:14:15.504Z,106.88
2022-08-09T15:15:15.452Z,95.62
2022-08-09T15:16:15.459Z,90.00
2022-08-09T15:17:15.574Z,84.38
2022-08-09T15:18:15.443Z,84.38
2022-08-09T15:19:17.893Z,84.38
2022-08-09T15:21:54.854Z,84.38
2022-08-09T15:22:03.667Z,84.38
2022-08-09T15:22:17.548Z,90.00
2022-08-09T15:24:03.722Z,95.62
2022-08-09T15:24:23.209Z,95.62
2022-08-09T15:25:15.370Z,90.00
2022-08-09T15:26:19.021Z,90.00
2022-08-09T15:27:15.345Z,90.00
2022-08-09T15:28:24.069Z,90.00
2022-08-09T15:30:55.874Z,90.00
2022-08-09T15:31:16.160Z,90.00
2022-08-09T15:31:28.517Z,90.00
2022-08-09T15:32:39.126Z,90.00
2022-08-09T15:33:28.101Z,90.00
2022-08-09T15:34:32.623Z,90.00
2022-08-09T15:35:40.779Z,90.00
2022-08-09T15:36:17.893Z,90.00
2022-08-09T15:37:17.911Z,84.38
2022-08-09T15:38:17.914Z,84.38
2022-08-09T15:39:17.857Z,84.38
2022-08-09T15:40:20.060Z,84.38
2022-08-09T15:41:22.001Z,84.38
2022-08-09T15:42:19.000Z,78.75
2022-08-09T15:43:17.835Z,73.12
2022-08-09T15:44:19.884Z,73.12
2022-08-09T15:45:21.713Z,73.12
2022-08-09T15:46:32.366Z,67.50
2022-08-09T15:47:22.542Z,67.50
2022-08-09T15:48:29.000Z,67.50
2022-08-09T15:49:22.580Z,67.50
2022-08-09T15:50:17.863Z,67.50
2022-08-09T15:51:44.357Z,67.50
2022-08-09T15:52:17.739Z,73.12
2022-08-09T15:54:02.768Z,78.75
2022-08-09T15:54:26.487Z,78.75
2022-08-09T15:55:17.707Z,78.75
2022-08-09T15:56:21.429Z,84.38
2022-08-09T15:57:19.082Z,84.38
2022-08-09T15:58:26.478Z,84.38
2022-08-09T15:59:17.671Z,78.75
2022-08-09T16:00:25.825Z,73.12
2022-08-09T16:01:17.759Z,67.50
2022-08-09T16:02:17.638Z,67.50
2022-08-09T16:03:18.894Z,67.50
2022-08-09T16:04:17.651Z,61.88
2022-08-09T16:05:17.690Z,61.88
2022-08-09T16:06:35.123Z,61.88
2022-08-09T16:07:17.593Z,61.88
2022-08-09T16:08:29.624Z,61.88
2022-08-09T16:09:17.596Z,67.50
2022-08-09T16:10:54.997Z,67.50
2022-08-09T16:11:17.553Z,67.50
2022-08-09T16:12:17.542Z,73.12
2022-08-09T16:13:18.425Z,73.12
2022-08-09T16:14:17.544Z,73.12
2022-08-09T16:16:11.853Z,73.12
2022-08-09T16:16:28.291Z,67.50
2022-08-09T16:17:17.500Z,67.50
2022-08-09T16:18:17.482Z,61.88
2022-08-09T16:19:18.126Z,56.25
2022-08-09T16:20:17.500Z,56.25
2022-08-09T16:21:25.489Z,50.62
2022-08-09T16:22:17.498Z,50.62
2022-08-09T16:23:19.878Z,45.00
2022-08-09T16:24:20.042Z,45.00
2022-08-09T16:25:17.443Z,45.00
2022-08-09T16:26:20.031Z,45.00
2022-08-09T16:27:17.399Z,45.00
2022-08-09T16:28:17.420Z,45.00
2022-08-09T16:29:20.358Z,45.00
2022-08-09T16:30:28.526Z,45.00
2022-08-09T16:31:17.383Z,45.00
2022-08-09T16:32:33.877Z,39.38
2022-08-09T16:33:17.341Z,39.38
2022-08-09T16:34:17.327Z,39.38
2022-08-09T16:35:39.204Z,39.38
2022-08-09T16:36:18.636Z,39.38
2022-08-09T16:37:17.295Z,39.38
2022-08-09T16:38:18.048Z,39.38
2022-08-09T16:39:17.377Z,39.38
2022-08-09T16:40:29.905Z,39.38
2022-08-09T16:41:19.921Z,39.38
2022-08-09T16:42:17.258Z,39.38
2022-08-09T16:43:18.131Z,39.38
2022-08-09T16:44:17.236Z,39.38
2022-08-09T16:45:17.244Z,45.00
2022-08-09T16:46:17.235Z,45.00
2022-08-09T16:48:39.301Z,45.00
2022-08-09T16:49:04.735Z,45.00
2022-08-09T16:50:29.920Z,39.38
2022-08-09T16:50:38.579Z,39.38
2022-08-09T16:51:17.172Z,39.38
2022-08-09T16:52:17.245Z,39.38
2022-08-09T16:53:17.137Z,39.38
2022-08-09T16:54:25.781Z,39.38
2022-08-09T16:55:18.217Z,39.38
2022-08-09T16:56:17.170Z,39.38
2022-08-09T16:57:17.217Z,39.38
2022-08-09T16:58:17.146Z,39.38
2022-08-09T16:59:17.125Z,39.38
2022-08-09T17:00:17.079Z,39.38
2022-08-09T17:01:19.222Z,39.38
2022-08-09T17:02:17.658Z,39.38
2022-08-09T17:03:22.130Z,39.38
2022-08-09T17:04:24.428Z,39.38
2022-08-09T17:05:19.663Z,39.38
2022-08-09T17:06:31.333Z,39.38
2022-08-09T17:08:46.140Z,39.38
2022-08-09T17:09:12.105Z,39.38
2022-08-09T17:09:49.383Z,39.38
2022-08-09T17:10:16.998Z,39.38
2022-08-09T17:11:16.962Z,39.38
2022-08-09T17:12:17.055Z,33.75
2022-08-09T17:13:16.959Z,39.38
2022-08-09T17:14:26.945Z,39.38
2022-08-09T17:15:31.394Z,39.38
2022-08-09T17:16:16.918Z,39.38
2022-08-09T17:17:26.293Z,39.38
2022-08-09T17:18:16.974Z,39.38
2022-08-09T17:19:16.910Z,39.38
2022-08-09T17:20:32.809Z,39.38
2022-08-09T17:21:16.888Z,39.38
2022-08-09T17:22:23.926Z,33.75
2022-08-09T17:23:16.850Z,33.75
2022-08-09T17:24:28.308Z,33.75
2022-08-09T17:25:16.827Z,33.75
2022-08-09T17:26:17.541Z,33.75
2022-08-09T17:27:16.888Z,33.75
2022-08-09T17:28:16.796Z,33.75
2022-08-09T17:29:20.264Z,33.75
2022-08-09T17:30:16.804Z,28.12
2022-08-09T17:31:16.823Z,28.12
2022-08-09T17:32:20.278Z,28.12
2022-08-09T17:33:21.978Z,28.12
2022-08-09T17:35:01.323Z,28.12
2022-08-09T17:35:16.740Z,28.12
2022-08-09T17:36:16.720Z,28.12
2022-08-09T17:37:19.421Z,28.12
2022-08-09T17:38:32.301Z,28.12
2022-08-09T17:39:16.964Z,28.12
2022-08-09T17:40:17.958Z,28.12
2022-08-09T17:41:16.706Z,28.12
2022-08-09T17:42:41.396Z,28.12
2022-08-09T17:43:34.535Z,28.12
2022-08-09T17:44:42.010Z,22.50
2022-08-09T17:45:23.725Z,22.50
2022-08-09T17:46:16.621Z,22.50
2022-08-09T17:47:16.633Z,22.50
2022-08-09T17:48:16.599Z,22.50
2022-08-09T17:49:18.612Z,22.50
2022-08-09T17:50:17.239Z,22.50
2022-08-09T17:51:18.076Z,22.50
2022-08-09T17:52:22.128Z,22.50
2022-08-09T17:53:22.183Z,22.50
2022-08-09T17:54:16.587Z,22.50
2022-08-09T17:55:16.532Z,22.50
2022-08-09T17:56:18.414Z,16.88
2022-08-09T17:57:20.568Z,16.88
2022-08-09T17:58:16.507Z,16.88
2022-08-09T17:59:16.930Z,16.88
2022-08-09T18:00:16.485Z,16.88
2022-08-09T18:01:23.183Z,16.88
2022-08-09T18:02:19.706Z,16.88
2022-08-09T18:03:17.757Z,16.88
2022-08-09T18:04:16.618Z,16.88
2022-08-09T18:05:16.452Z,16.88
2022-08-09T18:06:28.801Z,16.88
2022-08-09T18:07:23.482Z,16.88
2022-08-09T18:08:16.408Z,16.88
2022-08-09T18:09:16.388Z,16.88
2022-08-09T18:10:16.374Z,16.88
2022-08-09T18:11:16.573Z,16.88
2022-08-09T18:12:19.428Z,16.88
2022-08-09T18:13:39.238Z,11.25
2022-08-09T18:14:16.406Z,11.25
2022-08-09T18:15:16.337Z,11.25
2022-08-09T18:16:16.561Z,11.25
2022-08-09T18:17:18.879Z,11.25
2022-08-09T18:18:25.202Z,11.25
2022-08-09T18:21:01.200Z,11.25
2022-08-09T18:21:22.746Z,11.25
2022-08-09T18:21:28.689Z,11.25
2022-08-09T18:22:18.266Z,11.25
2022-08-09T18:24:09.482Z,11.25
2022-08-09T18:24:18.202Z,11.25
2022-08-09T18:25:18.198Z,11.25
2022-08-09T18:26:18.206Z,11.25
2022-08-09T18:27:33.682Z,5.62
2022-08-09T18:30:35.951Z,5.62
2022-08-09T18:30:49.264Z,5.62
2022-08-09T18:30:54.759Z,5.62
2022-08-09T18:31:56.274Z,5.62
2022-08-09T18:32:55.015Z,5.62
2022-08-09T18:33:54.745Z,5.62
2022-08-09T18:34:54.720Z,5.62
2022-08-09T18:35:59.982Z,5.62
2022-08-09T18:36:54.699Z,5.62
2022-08-09T18:37:55.063Z,5.62
2022-08-09T18:39:02.338Z,5.62
2022-08-09T18:39:54.759Z,5.62
2022-08-09T18:40:54.643Z,5.62
2022-08-09T18:41:54.640Z,5.62
2022-08-09T18:42:54.622Z,5.62
2022-08-09T18:43:54.629Z,0.00
2022-08-09T18:44:54.627Z,0.00
2022-08-09T18:46:49.398Z,0.00
2022-08-09T18:47:15.072Z,0.00
2022-08-09T18:47:54.583Z,0.00
2022-08-09T18:48:54.573Z,0.00
2022-08-09T18:49:54.562Z,0.00
2022-08-09T18:52:04.888Z,0.00
2022-08-09T18:53:05.851Z,0.00
2022-08-09T18:54:06.621Z,0.00
2022-08-09T18:55:05.836Z,0.00
2022-08-09T18:56:05.972Z,0.00
2022-08-09T18:57:06.910Z,0.00
2022-08-09T18:58:05.815Z,0.00
2022-08-09T18:59:05.790Z,0.00
2022-08-09T19:00:05.847Z,0.00
2022-08-09T19:01:05.805Z,0.00
2022-08-09T19:02:05.826Z,0.00
2022-08-09T19:03:05.769Z,0.00
2022-08-09T19:04:08.110Z,0.00
2022-08-09T19:05:19.501Z,0.00
2022-08-09T19:06:09.084Z,0.00
2022-08-09T19:07:05.717Z,0.00
2022-08-09T19:08:10.590Z,0.00
2022-08-09T19:09:05.706Z,0.00
2022-08-09T19:10:14.096Z,0.00
2022-08-09T19:11:05.688Z,0.00
2022-08-09T19:12:05.651Z,0.00
2022-08-09T19:13:16.648Z,0.00
2022-08-09T19:14:06.492Z,0.00
2022-08-09T19:15:06.404Z,0.00
2022-08-09T19:16:06.084Z,0.00
2022-08-09T19:17:05.600Z,0.00
2022-08-09T19:18:05.606Z,0.00
2022-08-09T19:19:23.524Z,0.00
2022-08-09T19:20:05.593Z,0.00
2022-08-09T19:21:09.615Z,0.00
2022-08-09T19:22:07.125Z,0.00
2022-08-09T19:23:06.472Z,0.00
2022-08-09T19:24:32.424Z,0.00
2022-08-09T19:25:11.305Z,0.00
2022-08-09T19:26:05.559Z,0.00
2022-08-09T19:27:05.545Z,0.00
2022-08-09T19:28:05.492Z,0.00
2022-08-09T19:29:09.653Z,0.00
2022-08-09T19:30:24.669Z,0.00
2022-08-09T19:31:07.667Z,0.00
2022-08-09T19:32:05.498Z,0.00
2022-08-09T19:33:14.243Z,0.00
2022-08-09T19:34:05.493Z,0.00
2022-08-09T19:35:05.560Z,0.00
2022-08-09T19:36:07.200Z,0.00
2022-08-09T19:37:05.478Z,0.00
2022-08-09T19:38:05.441Z,0.00
2022-08-09T19:39:05.898Z,0.00
2022-08-09T19:40:05.857Z,0.00
2022-08-09T19:41:05.411Z,0.00
2022-08-09T19:42:05.404Z,0.00
2022-08-09T19:43:10.143Z,0.00
2022-08-09T19:44:05.380Z,0.00
2022-08-09T19:45:05.362Z,0.00
2022-08-09T19:46:05.347Z,0.00
2022-08-09T19:47:05.340Z,0.00
2022-08-09T19:48:05.345Z,0.00
2022-08-09T19:50:10.246Z,0.00
2022-08-09T19:50:54.586Z,0.00
2022-08-09T19:51:05.297Z,0.00
2022-08-09T19:52:05.285Z,0.00
2022-08-09T19:53:05.286Z,0.00
2022-08-09T19:54:05.289Z,0.00
2022-08-09T19:55:05.267Z,0.00
2022-08-09T19:56:06.568Z,0.00
2022-08-09T19:57:05.234Z,0.00
2022-08-09T19:58:05.219Z,0.00
2022-08-09T19:59:33.365Z,0.00
2022-08-09T20:00:07.517Z,0.00
2022-08-09T20:01:05.197Z,0.00
2022-08-09T20:03:24.140Z,0.00
2022-08-09T20:04:36.405Z,0.00
2022-08-09T20:04:52.985Z,0.00
2022-08-09T20:05:30.544Z,0.00
2022-08-09T20:06:31.479Z,0.00
2022-08-09T20:07:33.771Z,0.00
2022-08-09T20:08:35.088Z,0.00
2022-08-09T20:09:45.146Z,0.00
2022-08-09T20:10:36.437Z,0.00
2022-08-09T20:11:42.983Z,0.00
2022-08-09T20:12:37.609Z,0.00
2022-08-09T20:13:30.367Z,0.00
2022-08-09T20:14:30.354Z,0.00
2022-08-09T20:16:33.460Z,0.00
2022-08-09T20:16:54.266Z,0.00
2022-08-09T20:17:30.978Z,0.00
2022-08-09T20:18:30.306Z,0.00
2022-08-09T20:19:48.834Z,0.00
2022-08-09T20:20:30.293Z,0.00
2022-08-09T20:21:54.839Z,0.00
2022-08-09T20:22:32.090Z,0.00
2022-08-09T20:23:38.864Z,0.00
2022-08-09T20:24:33.824Z,0.00
2022-08-09T20:25:30.233Z,0.00
2022-08-09T20:26:30.279Z,0.00
2022-08-09T20:27:30.215Z,0.00
2022-08-09T20:28:38.657Z,0.00
2022-08-09T20:29:37.319Z,0.00
2022-08-09T20:30:30.186Z,0.00
2022-08-09T20:31:30.172Z,0.00
2022-08-09T20:32:33.710Z,0.00
2022-08-09T20:33:38.970Z,0.00
2022-08-09T20:34:30.149Z,0.00
2022-08-09T20:35:30.215Z,0.00
2022-08-09T20:36:30.114Z,0.00
2022-08-09T20:38:19.502Z,0.00
2022-08-09T20:38:50.412Z,0.00
2022-08-09T20:40:14.940Z,0.00
2022-08-09T20:40:30.234Z,0.00
2022-08-09T20:41:34.943Z,0.00
2022-08-09T20:42:30.063Z,0.00
2022-08-09T20:43:30.080Z,0.00
2022-08-09T20:44:36.170Z,0.00
2022-08-09T20:46:00.900Z,0.00
2022-08-09T20:46:34.057Z,0.00
2022-08-09T20:47:48.329Z,0.00
2022-08-09T20:48:30.997Z,0.00
2022-08-09T20:49:29.999Z,0.00
2022-08-09T20:50:47.420Z,0.00
2022-08-09T20:51:29.965Z,0.00
2022-08-09T20:52:29.976Z,0.00
2022-08-09T20:53:36.940Z,0.00
2022-08-09T20:54:29.957Z,0.00
2022-08-09T20:55:29.920Z,0.00
2022-08-09T20:56:29.919Z,0.00
2022-08-09T20:57:32.411Z,0.00
2022-08-09T20:58:32.792Z,0.00
2022-08-09T21:00:19.904Z,0.00
2022-08-09T21:00:31.806Z,0.00
2022-08-09T21:01:34.034Z,0.00
2022-08-09T21:02:29.933Z,0.00
2022-08-09T21:03:29.833Z,0.00
2022-08-09T21:05:52.071Z,0.00
2022-08-09T21:06:04.081Z,0.00
2022-08-09T21:06:31.655Z,0.00
2022-08-09T21:07:38.752Z,0.00
2022-08-09T21:08:32.719Z,0.00
2022-08-09T21:09:42.285Z,0.00
2022-08-09T21:10:30.413Z,0.00
2022-08-09T21:13:29.738Z,0.00
2022-08-09T21:14:31.247Z,0.00
2022-08-09T21:15:34.640Z,0.00
2022-08-09T21:16:30.346Z,0.00
2022-08-09T21:18:11.578Z,0.00
2022-08-09T21:18:30.996Z,0.00
2022-08-09T21:20:18.681Z,0.00
2022-08-09T21:20:30.667Z,0.00
2022-08-09T21:21:46.222Z,0.00
2022-08-09T21:22:38.493Z,0.00
2022-08-09T21:23:47.287Z,0.00
2022-08-09T21:24:33.626Z,0.00
2022-08-09T21:25:37.632Z,0.00
2022-08-09T21:26:29.596Z,0.00
2022-08-09T21:27:50.860Z,0.00
2022-08-09T21:28:34.417Z,0.00
2022-08-09T21:29:29.560Z,0.00
2022-08-09T21:30:29.553Z,0.00
2022-08-09T21:31:48.551Z,0.00
2022-08-09T21:32:33.583Z,0.00
2022-08-09T21:33:36.091Z,0.00
2022-08-09T21:34:29.816Z,0.00
2022-08-09T21:35:31.869Z,0.00
2022-08-09T21:36:29.857Z,0.00
2022-08-09T21:37:29.476Z,0.00
2022-08-09T21:38:31.453Z,0.00
2022-08-09T21:39:42.181Z,0.00
2022-08-09T21:40:30.629Z,0.00
2022-08-09T21:42:03.782Z,0.00
2022-08-09T21:42:29.433Z,0.00
2022-08-09T21:43:56.976Z,0.00
2022-08-09T21:44:32.794Z,0.00
2022-08-09T21:45:30.454Z,0.00
2022-08-09T21:46:29.386Z,0.00
2022-08-09T21:47:29.369Z,0.00
2022-08-09T21:48:29.364Z,0.00
2022-08-09T21:49:29.372Z,0.00
2022-08-09T21:50:38.467Z,0.00
2022-08-09T21:51:36.373Z,0.00
2022-08-09T21:52:29.334Z,0.00
2022-08-09T21:53:40.627Z,0.00
2022-08-09T21:54:29.304Z,0.00
2022-08-09T21:55:29.310Z,0.00
2022-08-09T21:56:43.345Z,0.00
2022-08-09T21:57:38.586Z,0.00
2022-08-09T21:58:31.162Z,0.00
2022-08-09T21:59:29.238Z,0.00
2022-08-09T22:00:31.787Z,0.00
2022-08-09T22:01:58.807Z,0.00
2022-08-09T22:02:32.809Z,0.00
2022-08-09T22:03:29.262Z,0.00
2022-08-09T22:04:55.143Z,0.00
2022-08-09T22:05:37.065Z,0.00
2022-08-09T22:06:29.177Z,0.00
2022-08-09T22:07:39.848Z,0.00
2022-08-09T22:08:29.179Z,0.00
2022-08-09T22:09:29.139Z,0.00
2022-08-09T22:10:29.123Z,0.00
2022-08-09T22:12:06.150Z,0.00
2022-08-09T22:12:30.493Z,0.00
2022-08-09T22:13:33.921Z,0.00
2022-08-09T22:14:29.106Z,0.00
2022-08-09T22:15:34.709Z,0.00
2022-08-09T22:16:30.483Z,0.00
2022-08-09T22:17:32.209Z,0.00
2022-08-09T22:18:32.624Z,0.00
2022-08-09T22:19:58.416Z,0.00
2022-08-09T22:20:31.235Z,0.00
2022-08-09T22:21:45.287Z,0.00
2022-08-09T22:22:29.003Z,0.00
2022-08-09T22:23:35.739Z,0.00
2022-08-09T22:24:28.983Z,0.00
2022-08-09T22:26:08.369Z,0.00
2022-08-09T22:26:35.049Z,0.00
2022-08-09T22:27:28.942Z,0.00
2022-08-09T22:28:32.332Z,0.00
2022-08-09T22:29:38.518Z,0.00
2022-08-09T22:30:31.433Z,0.00
2022-08-09T22:31:28.893Z,0.00
2022-08-09T22:32:31.635Z,0.00
2022-08-09T22:33:37.436Z,0.00
2022-08-09T22:34:28.869Z,0.00
2022-08-09T22:36:01.767Z,0.00
2022-08-09T22:36:28.854Z,0.00
2022-08-09T22:37:28.833Z,0.00
2022-08-09T22:38:28.829Z,0.00
2022-08-09T22:39:58.048Z,0.00
2022-08-09T22:40:28.863Z,0.00
2022-08-09T22:41:28.815Z,0.00
2022-08-09T22:42:28.776Z,0.00
2022-08-09T22:44:01.313Z,0.00
2022-08-09T22:44:32.922Z,0.00
2022-08-09T22:48:12.249Z,0.00
2022-08-09T22:48:35.545Z,0.00
2022-08-09T22:48:50.335Z,0.00
2022-08-09T22:49:41.344Z,0.00
2022-08-09T22:50:41.319Z,0.00
2022-08-09T22:51:49.426Z,0.00
2022-08-09T22:52:41.303Z,0.00
2022-08-09T22:53:58.186Z,0.00
2022-08-09T22:54:41.285Z,0.00
2022-08-09T22:56:30.268Z,0.00
2022-08-09T22:56:41.549Z,0.00
2022-08-09T22:57:44.355Z,0.00
2022-08-09T22:58:41.242Z,0.00
2022-08-09T22:59:57.544Z,0.00
2022-08-09T23:00:41.222Z,0.00
2022-08-09T23:01:41.290Z,0.00
2022-08-09T23:02:41.199Z,0.00
2022-08-09T23:04:05.390Z,0.00
2022-08-09T23:04:41.181Z,0.00
2022-08-09T23:05:41.170Z,0.00
2022-08-09T23:06:41.157Z,0.00
2022-08-09T23:08:22.072Z,0.00
2022-08-09T23:08:41.163Z,0.00
2022-08-09T23:09:41.130Z,0.00
2022-08-09T23:10:43.862Z,0.00